Flight Track Log - Related Links

Times and Time Zones

All times are in EDT time to prevent confusion due to time zone crossing. See the EJA396 flight status page for this flight to view local times or setup timezone preferences in your user account.


Time Position Orientation Groundspeed Altitude Reporting Facility
EDT Latitude Longitude Course Direction KTS MPH feet Rate Location/Type
Mon 12:21:20 PM 41.6367 -70.2233 56° Northeast 225 259 4,200  Level Boston Center
Mon 12:22:20 PM 41.6792 -70.1525 51° Northeast 241 277 7,700 3,750 Climbing Boston Center
Mon 12:23:20 PM 41.7619 -70.1244 14° North 258 297 11,700 3,900 Climbing Boston Center
Mon 12:24:20 PM 41.8467 -70.0936 15° North 283 326 15,500 3,400 Climbing Boston Center
Mon 12:25:20 PM 41.9156 -70.0044 44° Northeast 313 360 18,500 2,450 Climbing Boston Center
Mon 12:26:00 PM 42.1962 -69.6410 56° Northeast  Level FlightAware Approximate
Mon 12:26:20 PM 41.9778 -69.8875 54° Northeast 341 392 20,400  Level Boston Center
Mon 12:27:20 PM 42.0297 -69.7875 55° Northeast 374 430 22,400 2,033 Climbing Boston Center
Mon 12:28:21 PM 42.1072 -69.6303 56° Northeast 405 466 24,500 1,800 Climbing Boston Center
Mon 12:29:20 PM 42.1828 -69.4869 55° Northeast 435 501 26,000 1,412 Climbing Boston Center
Mon 12:30:20 PM 42.2522 -69.3600 54° Northeast 463 533 27,300 1,400 Climbing Boston Center
Mon 12:31:20 PM 42.3272 -69.2075 56° Northeast 475 547 28,800 1,500 Climbing Boston Center
Mon 12:32:20 PM 42.4081 -69.0486 55° Northeast 497 572 30,300 1,550 Climbing Boston Center
Mon 12:33:20 PM 42.4906 -68.8781 57° Northeast 497 572 31,900 1,550 Climbing Boston Center
Mon 12:34:20 PM 42.5689 -68.7211 56° Northeast 497 572 33,400 1,500 Climbing Boston Center
Mon 12:35:20 PM 42.6450 -68.5669 56° Northeast 497 572 34,900 1,756 Climbing Boston Center
Mon 12:36:23 PM 42.7000 -68.4333 61° Northeast 490 564 37,000 1,600 Climbing Moncton Center
Mon 12:37:20 PM 42.7850 -68.2836 52° Northeast 480 552 38,100 1,026 Climbing Boston Center
Mon 12:38:20 PM 42.8586 -68.1342 56° Northeast 480 552 39,000 439 Climbing Boston Center
Mon 12:39:23 PM 42.9167 -67.9833 62° Northeast 480 552 39,000  Level Moncton Center
Mon 12:40:23 PM 43.0000 -67.8167 56° Northeast 490 564 39,000  Level Moncton Center
Mon 12:41:23 PM 43.0667 -67.6667 59° Northeast 490 564 39,000  Level Moncton Center
Mon 12:42:23 PM 43.1333 -67.5167 59° Northeast 500 575 39,000  Level Moncton Center
Mon 12:43:23 PM 43.2333 -67.3167 55° Northeast 520 598 39,000  Level Moncton Center
Mon 12:44:32 PM 43.3306 -67.1525 51° Northeast 501 577 39,000  Level Boston Center
Mon 12:45:23 PM 43.3833 -67.0000 64° Northeast 510 587 39,000  Level Moncton Center
Mon 12:46:23 PM 43.4833 -66.8167 53° Northeast 520 598 39,000  Level Moncton Center
Mon 12:47:23 PM 43.5500 -66.6500 61° Northeast 520 598 39,000  Level Moncton Center
Mon 12:48:23 PM 43.6167 -66.5000 58° Northeast 520 598 39,000  Level Moncton Center
Mon 12:49:23 PM 43.7000 -66.3167 58° Northeast 520 598 39,000  Level Moncton Center
Mon 12:50:23 PM 43.7667 -66.1500 61° Northeast 520 598 39,000  Level Moncton Center
Mon 12:51:23 PM 43.8500 -65.9667 58° Northeast 520 598 39,000  Level Moncton Center
Mon 12:52:23 PM 43.9333 -65.8167 52° Northeast 520 598 39,000  Level Moncton Center
Mon 12:53:23 PM 44.0000 -65.6333 63° Northeast 520 598 39,000  Level Moncton Center
Mon 12:54:23 PM 44.0833 -65.4667 55° Northeast 520 598 39,000  Level Moncton Center
Mon 12:55:23 PM 44.1500 -65.2833 63° Northeast 520 598 39,000  Level Moncton Center
Mon 12:56:24 PM 44.2167 -65.1000 63° Northeast 530 610 39,000  Level Moncton Center
Mon 12:57:23 PM 44.3000 -64.9167 58° Northeast 530 610 39,000  Level Moncton Center
Mon 12:58:24 PM 44.3667 -64.7500 61° Northeast 530 610 39,000  Level Moncton Center
Mon 12:59:24 PM 44.4333 -64.5667 63° Northeast 530 610 39,000  Level Moncton Center
Mon 01:00:24 PM 44.5000 -64.4000 61° Northeast 530 610 39,000 -150 Level Moncton Center
Mon 01:01:24 PM 44.5833 -64.2167 57° Northeast 530 610 38,700 -600 Descending Moncton Center
Mon 01:02:24 PM 44.6500 -64.0167 65° Northeast 530 610 37,800 -1,000 Descending Moncton Center
Mon 01:03:24 PM 44.7333 -63.8333 57° Northeast 530 610 36,700 -1,000 Descending Moncton Center
Mon 01:04:24 PM 44.8000 -63.6667 61° Northeast 530 610 35,800 -1,050 Descending Moncton Center
Mon 01:05:24 PM 44.8667 -63.4833 63° Northeast 530 610 34,600 -1,200 Descending Moncton Center
Mon 01:06:24 PM 44.9333 -63.3167 60° Northeast 540 621 33,400 -1,750 Descending Moncton Center
Mon 01:07:24 PM 45.0167 -63.1167 59° Northeast 520 598 31,100 -2,700 Descending Moncton Center
Mon 01:08:24 PM 45.0833 -62.9333 63° Northeast 520 598 28,000 -3,200 Descending Moncton Center
Mon 01:09:24 PM 45.1500 -62.7667 60° Northeast 520 598 24,700 -3,200 Descending Moncton Center
Mon 01:10:24 PM 45.2167 -62.6000 60° Northeast 480 552 21,600 -2,900 Descending Moncton Center
Mon 01:11:24 PM 45.2500 -62.4167 75° East 450 518 18,900 -2,750 Descending Moncton Center
Mon 01:12:24 PM 45.3167 -62.2833 55° Northeast 420 483 16,100 -2,650 Descending Moncton Center
Mon 01:13:24 PM 45.3667 -62.1333 65° Northeast 410 472 13,600 -2,550 Descending Moncton Center
Mon 01:14:24 PM 45.4167 -61.9833 65° Northeast 390 449 11,000 -2,250 Descending Moncton Center
Mon 01:15:24 PM 45.4667 -61.8667 59° Northeast 350 403 9,100 -1,350 Descending Moncton Center
Mon 01:16:24 PM 45.4833 -61.7500 78° East 300 345 8,300 -1,100 Descending Moncton Center
Mon 01:17:24 PM 45.4833 -61.6500 90° East 280 322 6,900 -1,200 Descending Moncton Center
Mon 01:18:24 PM 45.5000 -61.5333 78° East 270 311 5,900 -1,200 Descending Moncton Center
Mon 01:19:24 PM 45.5167 -61.4333 77° East 270 311 4,500 -1,400 Descending Moncton Center
Mon 01:20:24 PM 45.5333 -61.3333 77° East 260 299 3,100 -850 Descending Moncton Center
Mon 01:21:24 PM 45.5500 -61.2500 74° East 240 276 2,800 -150 Descending Moncton Center
Mon 01:22:24 PM 45.5500 -61.1500 90° East 230 265 2,800 -200 Level Moncton Center
Mon 01:23:24 PM 45.6000 -61.1000 35° Northeast 220 253 2,400 -750 Descending Moncton Center
Mon 01:24:24 PM 45.6500 -61.1167 347° North 200 230 1,300 -550 Descending Moncton Center
Mon 01:25:24 PM 45.6833 -61.1667 314° West 200 230 1,300  Level Moncton Center
Mon 01:27:00 PM 45.6500 -61.3667 321° Northwest  Level FlightAware Approximate

Login

Don't have an account? Register now (free) for customized features, flight alerts, and more!